sensor_id;sensor_type;location;lat;lon;timestamp;pressure;altitude;pressure_sealevel;temperature;humidity
10115;BME280;5097;43.260;27.812;2022-08-21T00:00:17;99460.38;;;23.79;80.89
10115;BME280;5097;43.260;27.812;2022-08-21T00:02:46;99457.28;;;23.67;80.86
10115;BME280;5097;43.260;27.812;2022-08-21T00:05:10;99451.06;;;23.66;80.69
10115;BME280;5097;43.260;27.812;2022-08-21T00:07:34;99463.50;;;23.52;81.97
10115;BME280;5097;43.260;27.812;2022-08-21T00:09:58;99459.22;;;23.58;81.46
10115;BME280;5097;43.260;27.812;2022-08-21T00:12:23;99464.44;;;23.59;82.37
10115;BME280;5097;43.260;27.812;2022-08-21T00:14:49;99449.66;;;23.70;81.61
10115;BME280;5097;43.260;27.812;2022-08-21T00:17:20;99444.56;;;23.75;81.23
10115;BME280;5097;43.260;27.812;2022-08-21T00:19:45;99443.84;;;23.82;81.00
10115;BME280;5097;43.260;27.812;2022-08-21T00:22:09;99458.09;;;23.90;81.15
10115;BME280;5097;43.260;27.812;2022-08-21T00:24:33;99455.25;;;23.84;81.26
10115;BME280;5097;43.260;27.812;2022-08-21T00:26:57;99456.28;;;23.83;81.21
10115;BME280;5097;43.260;27.812;2022-08-21T00:29:22;99448.16;;;23.68;81.37
10115;BME280;5097;43.260;27.812;2022-08-21T00:31:47;99432.78;;;23.53;82.43
10115;BME280;5097;43.260;27.812;2022-08-21T00:34:12;99436.56;;;23.67;82.11
10115;BME280;5097;43.260;27.812;2022-08-21T00:36:37;99452.06;;;23.65;82.55
10115;BME280;5097;43.260;27.812;2022-08-21T00:39:02;99448.56;;;23.80;81.68
10115;BME280;5097;43.260;27.812;2022-08-21T00:41:26;99440.84;;;23.76;82.42
10115;BME280;5097;43.260;27.812;2022-08-21T00:43:59;99446.06;;;23.78;81.83
10115;BME280;5097;43.260;27.812;2022-08-21T00:46:24;99433.09;;;23.58;82.55
10115;BME280;5097;43.260;27.812;2022-08-21T00:48:51;99437.88;;;23.71;82.32
10115;BME280;5097;43.260;27.812;2022-08-21T00:51:24;99435.50;;;23.68;82.38
10115;BME280;5097;43.260;27.812;2022-08-21T00:53:51;99438.38;;;23.52;83.14
10115;BME280;5097;43.260;27.812;2022-08-21T00:56:19;99441.97;;;23.44;84.13
10115;BME280;5097;43.260;27.812;2022-08-21T00:58:45;99441.00;;;23.60;83.93
10115;BME280;5097;43.260;27.812;2022-08-21T01:01:15;99441.19;;;23.73;83.27
10115;BME280;5097;43.260;27.812;2022-08-21T01:03:42;99444.47;;;23.69;83.29
10115;BME280;5097;43.260;27.812;2022-08-21T01:06:08;99446.28;;;23.68;83.31
10115;BME280;5097;43.260;27.812;2022-08-21T01:08:33;99420.25;;;23.46;83.94
10115;BME280;5097;43.260;27.812;2022-08-21T01:11:00;99438.97;;;23.62;83.94
10115;BME280;5097;43.260;27.812;2022-08-21T01:13:28;99436.44;;;23.60;83.73
10115;BME280;5097;43.260;27.812;2022-08-21T01:15:56;99435.09;;;23.41;84.43
10115;BME280;5097;43.260;27.812;2022-08-21T01:18:23;99420.81;;;23.18;85.91
10115;BME280;5097;43.260;27.812;2022-08-21T01:21:13;99445.19;;;23.63;85.00
10115;BME280;5097;43.260;27.812;2022-08-21T01:23:40;99425.19;;;23.72;83.74
10115;BME280;5097;43.260;27.812;2022-08-21T01:26:06;99442.38;;;23.94;82.85
10115;BME280;5097;43.260;27.812;2022-08-21T01:28:34;99444.06;;;24.10;81.35
10115;BME280;5097;43.260;27.812;2022-08-21T01:31:01;99456.06;;;24.07;81.39
10115;BME280;5097;43.260;27.812;2022-08-21T01:33:26;99455.78;;;24.02;81.54
10115;BME280;5097;43.260;27.812;2022-08-21T01:35:50;99432.50;;;24.01;81.54
10115;BME280;5097;43.260;27.812;2022-08-21T01:38:16;99437.44;;;23.98;81.98
10115;BME280;5097;43.260;27.812;2022-08-21T01:40:40;99424.78;;;23.98;81.60
10115;BME280;5097;43.260;27.812;2022-08-21T01:43:05;99441.16;;;24.12;81.29
10115;BME280;5097;43.260;27.812;2022-08-21T01:45:29;99443.88;;;24.12;81.11
10115;BME280;5097;43.260;27.812;2022-08-21T01:47:54;99439.50;;;23.96;81.90
10115;BME280;5097;43.260;27.812;2022-08-21T01:50:19;99396.56;;;23.71;82.09
10115;BME280;5097;43.260;27.812;2022-08-21T01:52:43;99424.59;;;24.00;81.80
10115;BME280;5097;43.260;27.812;2022-08-21T01:55:11;99415.00;;;23.67;82.93
10115;BME280;5097;43.260;27.812;2022-08-21T01:57:35;99430.84;;;23.47;84.47
10115;BME280;5097;43.260;27.812;2022-08-21T01:59:59;99423.78;;;23.46;84.77
10115;BME280;5097;43.260;27.812;2022-08-21T02:02:33;99382.94;;;23.34;84.02
10115;BME280;5097;43.260;27.812;2022-08-21T02:04:57;99424.09;;;23.66;84.08
10115;BME280;5097;43.260;27.812;2022-08-21T02:07:22;99421.09;;;23.61;84.22
10115;BME280;5097;43.260;27.812;2022-08-21T02:09:46;99425.19;;;23.57;84.59
10115;BME280;5097;43.260;27.812;2022-08-21T02:12:11;99422.56;;;23.49;84.24
10115;BME280;5097;43.260;27.812;2022-08-21T02:14:36;99422.06;;;23.30;84.92
10115;BME280;5097;43.260;27.812;2022-08-21T02:17:01;99425.84;;;23.21;85.41
10115;BME280;5097;43.260;27.812;2022-08-21T02:19:31;99424.53;;;23.17;85.87
10115;BME280;5097;43.260;27.812;2022-08-21T02:22:03;99423.38;;;23.11;85.64
10115;BME280;5097;43.260;27.812;2022-08-21T02:24:27;99431.50;;;23.03;86.41
10115;BME280;5097;43.260;27.812;2022-08-21T02:26:51;99434.09;;;22.96;87.28
10115;BME280;5097;43.260;27.812;2022-08-21T02:29:17;99417.00;;;22.81;87.29
10115;BME280;5097;43.260;27.812;2022-08-21T02:31:41;99415.00;;;22.83;87.85
10115;BME280;5097;43.260;27.812;2022-08-21T02:34:05;99419.28;;;22.69;88.85
10115;BME280;5097;43.260;27.812;2022-08-21T02:36:30;99436.09;;;22.94;88.25
10115;BME280;5097;43.260;27.812;2022-08-21T02:38:55;99415.69;;;22.76;88.61
10115;BME280;5097;43.260;27.812;2022-08-21T02:41:20;99437.66;;;22.88;89.33
10115;BME280;5097;43.260;27.812;2022-08-21T02:43:44;99438.88;;;22.86;89.01
10115;BME280;5097;43.260;27.812;2022-08-21T02:46:11;99438.91;;;22.77;89.77
10115;BME280;5097;43.260;27.812;2022-08-21T02:48:36;99414.50;;;22.56;90.84
10115;BME280;5097;43.260;27.812;2022-08-21T02:51:02;99434.91;;;22.73;91.07
10115;BME280;5097;43.260;27.812;2022-08-21T02:53:28;99436.56;;;22.74;91.02
10115;BME280;5097;43.260;27.812;2022-08-21T02:55:53;99434.31;;;22.86;90.19
10115;BME280;5097;43.260;27.812;2022-08-21T02:58:28;99436.78;;;22.65;91.32
10115;BME280;5097;43.260;27.812;2022-08-21T03:00:54;99441.25;;;22.81;91.18
10115;BME280;5097;43.260;27.812;2022-08-21T03:03:19;99440.25;;;22.82;90.48
10115;BME280;5097;43.260;27.812;2022-08-21T03:05:44;99448.31;;;23.05;89.56
10115;BME280;5097;43.260;27.812;2022-08-21T03:08:10;99446.47;;;23.05;88.61
10115;BME280;5097;43.260;27.812;2022-08-21T03:10:34;99454.41;;;23.30;87.36
10115;BME280;5097;43.260;27.812;2022-08-21T03:12:59;99446.38;;;23.22;87.20
10115;BME280;5097;43.260;27.812;2022-08-21T03:15:24;99435.13;;;23.18;86.47
10115;BME280;5097;43.260;27.812;2022-08-21T03:17:50;99442.38;;;23.18;87.06
10115;BME280;5097;43.260;27.812;2022-08-21T03:20:19;99448.31;;;23.05;87.79
10115;BME280;5097;43.260;27.812;2022-08-21T03:22:46;99436.22;;;22.77;88.75
10115;BME280;5097;43.260;27.812;2022-08-21T03:25:14;99447.56;;;22.96;88.21
10115;BME280;5097;43.260;27.812;2022-08-21T03:27:42;99439.09;;;22.99;87.89
10115;BME280;5097;43.260;27.812;2022-08-21T03:30:07;99445.44;;;23.06;87.10
10115;BME280;5097;43.260;27.812;2022-08-21T03:32:32;99446.75;;;23.19;86.37
10115;BME280;5097;43.260;27.812;2022-08-21T03:34:57;99440.94;;;23.30;85.46
10115;BME280;5097;43.260;27.812;2022-08-21T03:37:23;99419.59;;;22.97;85.69
10115;BME280;5097;43.260;27.812;2022-08-21T03:39:48;99446.75;;;23.10;85.84
10115;BME280;5097;43.260;27.812;2022-08-21T03:42:12;99454.34;;;23.15;85.67
10115;BME280;5097;43.260;27.812;2022-08-21T03:44:36;99462.56;;;23.22;85.69
10115;BME280;5097;43.260;27.812;2022-08-21T03:47:02;99454.78;;;23.27;85.22
10115;BME280;5097;43.260;27.812;2022-08-21T03:49:26;99459.78;;;23.30;84.83
10115;BME280;5097;43.260;27.812;2022-08-21T03:51:51;99458.34;;;22.96;86.47
10115;BME280;5097;43.260;27.812;2022-08-21T03:54:22;99449.00;;;23.07;85.66
10115;BME280;5097;43.260;27.812;2022-08-21T03:56:50;99442.09;;;23.04;86.04
10115;BME280;5097;43.260;27.812;2022-08-21T03:59:14;99430.84;;;22.77;86.22
10115;BME280;5097;43.260;27.812;2022-08-21T04:01:39;99456.41;;;22.82;87.27
10115;BME280;5097;43.260;27.812;2022-08-21T04:04:03;99464.78;;;22.87;87.10
10115;BME280;5097;43.260;27.812;2022-08-21T04:06:29;99460.91;;;22.89;86.91
10115;BME280;5097;43.260;27.812;2022-08-21T04:08:59;99459.72;;;22.92;86.80
10115;BME280;5097;43.260;27.812;2022-08-21T04:11:24;99459.72;;;22.92;87.32
10115;BME280;5097;43.260;27.812;2022-08-21T04:13:48;99469.34;;;23.09;86.96
10115;BME280;5097;43.260;27.812;2022-08-21T04:16:13;99466.06;;;23.22;86.38
10115;BME280;5097;43.260;27.812;2022-08-21T04:18:38;99455.63;;;23.42;85.62
10115;BME280;5097;43.260;27.812;2022-08-21T04:21:03;99438.38;;;23.52;84.24
10115;BME280;5097;43.260;27.812;2022-08-21T04:23:32;99453.84;;;23.73;83.83
10115;BME280;5097;43.260;27.812;2022-08-21T04:25:57;99442.66;;;23.99;82.36
10115;BME280;5097;43.260;27.812;2022-08-21T04:28:23;99444.16;;;24.17;81.43
10115;BME280;5097;43.260;27.812;2022-08-21T04:30:52;99453.44;;;24.14;81.26
10115;BME280;5097;43.260;27.812;2022-08-21T04:33:16;99459.00;;;24.42;80.37
10115;BME280;5097;43.260;27.812;2022-08-21T04:35:40;99457.59;;;24.47;80.58
10115;BME280;5097;43.260;27.812;2022-08-21T04:38:05;99444.25;;;24.23;81.45
10115;BME280;5097;43.260;27.812;2022-08-21T04:40:29;99449.69;;;24.45;80.62
10115;BME280;5097;43.260;27.812;2022-08-21T04:42:57;99424.28;;;24.54;79.55
10115;BME280;5097;43.260;27.812;2022-08-21T04:45:28;99443.13;;;24.84;78.63
10115;BME280;5097;43.260;27.812;2022-08-21T04:47:54;99445.19;;;25.04;77.58
10115;BME280;5097;43.260;27.812;2022-08-21T04:50:19;99453.56;;;25.09;77.19
10115;BME280;5097;43.260;27.812;2022-08-21T04:53:00;99437.53;;;25.07;76.40
10115;BME280;5097;43.260;27.812;2022-08-21T04:55:24;99460.06;;;25.36;76.10
10115;BME280;5097;43.260;27.812;2022-08-21T04:57:51;99452.47;;;25.47;74.28
10115;BME280;5097;43.260;27.812;2022-08-21T05:00:16;99426.88;;;25.42;74.09
10115;BME280;5097;43.260;27.812;2022-08-21T05:02:43;99442.84;;;25.66;73.55
10115;BME280;5097;43.260;27.812;2022-08-21T05:05:08;99452.94;;;25.85;72.77
10115;BME280;5097;43.260;27.812;2022-08-21T05:07:33;99445.03;;;25.84;73.21
10115;BME280;5097;43.260;27.812;2022-08-21T05:10:05;99440.06;;;26.16;72.27
10115;BME280;5097;43.260;27.812;2022-08-21T05:12:32;99429.47;;;25.86;71.75
10115;BME280;5097;43.260;27.812;2022-08-21T05:14:58;99429.22;;;26.16;71.54
10115;BME280;5097;43.260;27.812;2022-08-21T05:17:24;99438.53;;;26.48;70.32
10115;BME280;5097;43.260;27.812;2022-08-21T05:19:49;99437.94;;;26.53;69.62
10115;BME280;5097;43.260;27.812;2022-08-21T05:22:19;99422.09;;;26.43;69.40
10115;BME280;5097;43.260;27.812;2022-08-21T05:24:43;99429.28;;;26.29;70.05
10115;BME280;5097;43.260;27.812;2022-08-21T05:27:07;99428.25;;;26.30;70.08
10115;BME280;5097;43.260;27.812;2022-08-21T05:29:31;99433.13;;;26.55;69.53
10115;BME280;5097;43.260;27.812;2022-08-21T05:31:56;99432.09;;;26.56;68.79
10115;BME280;5097;43.260;27.812;2022-08-21T05:34:23;99427.19;;;26.73;68.20
10115;BME280;5097;43.260;27.812;2022-08-21T05:36:48;99409.50;;;26.84;67.90
10115;BME280;5097;43.260;27.812;2022-08-21T05:39:13;99400.13;;;26.86;67.37
10115;BME280;5097;43.260;27.812;2022-08-21T05:41:38;99425.78;;;26.90;68.20
10115;BME280;5097;43.260;27.812;2022-08-21T05:44:02;99388.59;;;26.64;68.36
10115;BME280;5097;43.260;27.812;2022-08-21T05:46:32;99410.78;;;27.08;67.29
10115;BME280;5097;43.260;27.812;2022-08-21T05:48:56;99429.56;;;27.36;66.48
10115;BME280;5097;43.260;27.812;2022-08-21T05:51:20;99419.59;;;27.43;66.35
10115;BME280;5097;43.260;27.812;2022-08-21T05:53:46;99427.53;;;27.38;65.12
10115;BME280;5097;43.260;27.812;2022-08-21T05:56:11;99413.66;;;26.73;65.63
10115;BME280;5097;43.260;27.812;2022-08-21T05:58:35;99421.63;;;27.15;64.57
10115;BME280;5097;43.260;27.812;2022-08-21T06:01:01;99421.38;;;26.89;62.79
10115;BME280;5097;43.260;27.812;2022-08-21T06:03:28;99420.19;;;27.19;61.29
10115;BME280;5097;43.260;27.812;2022-08-21T06:05:54;99420.19;;;27.32;60.94
10115;BME280;5097;43.260;27.812;2022-08-21T06:08:20;99429.22;;;27.46;61.14
10115;BME280;5097;43.260;27.812;2022-08-21T06:10:47;99422.31;;;27.57;59.84
10115;BME280;5097;43.260;27.812;2022-08-21T06:13:12;99410.16;;;27.86;59.83
10115;BME280;5097;43.260;27.812;2022-08-21T06:15:36;99428.88;;;28.21;58.32
10115;BME280;5097;43.260;27.812;2022-08-21T06:18:00;99421.59;;;28.08;57.11
10115;BME280;5097;43.260;27.812;2022-08-21T06:20:24;99430.78;;;28.07;57.02
10115;BME280;5097;43.260;27.812;2022-08-21T06:22:49;99429.44;;;28.37;56.92
10115;BME280;5097;43.260;27.812;2022-08-21T06:25:13;99418.66;;;27.97;56.79
10115;BME280;5097;43.260;27.812;2022-08-21T06:27:39;99428.56;;;28.50;56.01
10115;BME280;5097;43.260;27.812;2022-08-21T06:30:04;99419.81;;;28.34;56.02
10115;BME280;5097;43.260;27.812;2022-08-21T06:32:29;99433.22;;;28.29;54.52
10115;BME280;5097;43.260;27.812;2022-08-21T06:34:53;99431.75;;;28.40;56.39
10115;BME280;5097;43.260;27.812;2022-08-21T06:37:17;99430.22;;;28.51;56.43
10115;BME280;5097;43.260;27.812;2022-08-21T06:39:41;99444.03;;;28.42;56.40
10115;BME280;5097;43.260;27.812;2022-08-21T06:42:13;99439.84;;;28.53;56.33
10115;BME280;5097;43.260;27.812;2022-08-21T06:44:40;99438.53;;;28.56;55.81
10115;BME280;5097;43.260;27.812;2022-08-21T06:47:04;99444.41;;;28.53;54.96
10115;BME280;5097;43.260;27.812;2022-08-21T06:49:28;99394.38;;;28.29;55.05
10115;BME280;5097;43.260;27.812;2022-08-21T06:51:54;99429.50;;;28.17;53.68
10115;BME280;5097;43.260;27.812;2022-08-21T06:54:19;99412.97;;;28.25;53.63
10115;BME280;5097;43.260;27.812;2022-08-21T06:56:45;99444.06;;;28.29;53.18
10115;BME280;5097;43.260;27.812;2022-08-21T06:59:09;99440.31;;;28.82;53.05
10115;BME280;5097;43.260;27.812;2022-08-21T07:01:34;99439.31;;;28.76;51.95
10115;BME280;5097;43.260;27.812;2022-08-21T07:03:59;99415.53;;;28.13;52.44
10115;BME280;5097;43.260;27.812;2022-08-21T07:06:23;99414.88;;;28.24;52.03
10115;BME280;5097;43.260;27.812;2022-08-21T07:08:47;99434.38;;;28.01;52.65
10115;BME280;5097;43.260;27.812;2022-08-21T07:11:16;99434.03;;;28.36;52.64
10115;BME280;5097;43.260;27.812;2022-08-21T07:13:40;99443.88;;;28.83;51.40
10115;BME280;5097;43.260;27.812;2022-08-21T07:16:05;99440.19;;;28.64;51.00
10115;BME280;5097;43.260;27.812;2022-08-21T07:18:31;99439.34;;;28.63;50.96
10115;BME280;5097;43.260;27.812;2022-08-21T07:20:55;99436.13;;;28.34;50.64
10115;BME280;5097;43.260;27.812;2022-08-21T07:23:22;99431.75;;;28.79;50.38
10115;BME280;5097;43.260;27.812;2022-08-21T07:25:48;99428.81;;;28.87;49.70
10115;BME280;5097;43.260;27.812;2022-08-21T07:28:12;99421.00;;;28.97;49.96
10115;BME280;5097;43.260;27.812;2022-08-21T07:30:36;99413.53;;;29.18;49.36
10115;BME280;5097;43.260;27.812;2022-08-21T07:33:00;99426.84;;;29.33;49.63
10115;BME280;5097;43.260;27.812;2022-08-21T07:35:26;99417.69;;;29.20;49.15
10115;BME280;5097;43.260;27.812;2022-08-21T07:37:50;99418.84;;;29.38;48.29
10115;BME280;5097;43.260;27.812;2022-08-21T07:40:15;99415.50;;;29.04;47.78
10115;BME280;5097;43.260;27.812;2022-08-21T07:42:40;99413.81;;;28.78;49.56
10115;BME280;5097;43.260;27.812;2022-08-21T07:45:06;99410.31;;;28.57;50.12
10115;BME280;5097;43.260;27.812;2022-08-21T07:47:30;99393.00;;;28.51;50.27
10115;BME280;5097;43.260;27.812;2022-08-21T07:50:05;99397.06;;;28.81;49.67
10115;BME280;5097;43.260;27.812;2022-08-21T07:52:31;99385.28;;;28.93;50.07
10115;BME280;5097;43.260;27.812;2022-08-21T07:54:56;99396.59;;;28.84;51.18
10115;BME280;5097;43.260;27.812;2022-08-21T07:57:25;99380.56;;;28.75;51.42
10115;BME280;5097;43.260;27.812;2022-08-21T07:59:49;99393.94;;;29.59;50.15
10115;BME280;5097;43.260;27.812;2022-08-21T08:02:22;99394.09;;;29.90;50.74
10115;BME280;5097;43.260;27.812;2022-08-21T08:04:46;99402.75;;;30.36;48.65
10115;BME280;5097;43.260;27.812;2022-08-21T08:07:12;99397.75;;;30.82;47.23
10115;BME280;5097;43.260;27.812;2022-08-21T08:09:38;99392.41;;;31.05;46.89
10115;BME280;5097;43.260;27.812;2022-08-21T08:12:04;99392.88;;;31.14;46.72
10115;BME280;5097;43.260;27.812;2022-08-21T08:14:28;99382.53;;;31.04;46.43
10115;BME280;5097;43.260;27.812;2022-08-21T08:16:55;99385.41;;;31.57;45.01
10115;BME280;5097;43.260;27.812;2022-08-21T08:19:19;99375.81;;;31.54;45.57
10115;BME280;5097;43.260;27.812;2022-08-21T08:21:43;99374.66;;;30.96;45.93
10115;BME280;5097;43.260;27.812;2022-08-21T08:24:07;99384.78;;;30.65;46.91
10115;BME280;5097;43.260;27.812;2022-08-21T08:26:42;99382.19;;;30.70;47.66
10115;BME280;5097;43.260;27.812;2022-08-21T08:29:15;99377.78;;;31.12;47.42
10115;BME280;5097;43.260;27.812;2022-08-21T08:31:39;99389.22;;;31.20;48.56
10115;BME280;5097;43.260;27.812;2022-08-21T08:34:03;99371.66;;;31.52;48.09
10115;BME280;5097;43.260;27.812;2022-08-21T08:36:32;99366.63;;;31.01;49.44
10115;BME280;5097;43.260;27.812;2022-08-21T08:38:57;99374.56;;;32.09;46.98
10115;BME280;5097;43.260;27.812;2022-08-21T08:41:21;99372.59;;;31.93;46.57
10115;BME280;5097;43.260;27.812;2022-08-21T08:44:00;99361.84;;;32.27;45.16
10115;BME280;5097;43.260;27.812;2022-08-21T08:46:31;99370.97;;;32.33;44.81
10115;BME280;5097;43.260;27.812;2022-08-21T08:49:01;99376.75;;;32.36;44.28
10115;BME280;5097;43.260;27.812;2022-08-21T08:51:31;99374.38;;;32.40;44.06
10115;BME280;5097;43.260;27.812;2022-08-21T08:54:02;99357.19;;;32.56;42.63
10115;BME280;5097;43.260;27.812;2022-08-21T08:56:31;99367.31;;;32.27;42.72
10115;BME280;5097;43.260;27.812;2022-08-21T08:59:01;99357.34;;;32.21;43.21
10115;BME280;5097;43.260;27.812;2022-08-21T09:01:26;99360.75;;;32.57;42.33
10115;BME280;5097;43.260;27.812;2022-08-21T09:03:50;99358.19;;;32.96;41.78
10115;BME280;5097;43.260;27.812;2022-08-21T09:06:24;99356.94;;;32.29;43.29
10115;BME280;5097;43.260;27.812;2022-08-21T09:09:02;99342.50;;;32.46;42.72
10115;BME280;5097;43.260;27.812;2022-08-21T09:11:37;99349.41;;;32.65;42.89
10115;BME280;5097;43.260;27.812;2022-08-21T09:14:13;99344.91;;;32.42;43.58
10115;BME280;5097;43.260;27.812;2022-08-21T09:16:47;99343.44;;;32.51;44.14
10115;BME280;5097;43.260;27.812;2022-08-21T09:19:26;99345.94;;;32.70;43.77
10115;BME280;5097;43.260;27.812;2022-08-21T09:21:56;99339.03;;;32.50;44.02
10115;BME280;5097;43.260;27.812;2022-08-21T09:24:31;99314.84;;;32.59;43.10
10115;BME280;5097;43.260;27.812;2022-08-21T09:27:02;99315.41;;;32.15;43.62
10115;BME280;5097;43.260;27.812;2022-08-21T09:29:33;99299.97;;;31.56;44.56
10115;BME280;5097;43.260;27.812;2022-08-21T09:31:58;99333.81;;;32.20;43.40
10115;BME280;5097;43.260;27.812;2022-08-21T09:34:26;99335.16;;;32.63;43.02
10115;BME280;5097;43.260;27.812;2022-08-21T09:36:52;99328.44;;;32.54;42.33
10115;BME280;5097;43.260;27.812;2022-08-21T09:39:24;99293.63;;;32.78;43.44
10115;BME280;5097;43.260;27.812;2022-08-21T09:41:55;99275.72;;;32.41;43.39
10115;BME280;5097;43.260;27.812;2022-08-21T09:44:25;99316.00;;;32.63;42.39
10115;BME280;5097;43.260;27.812;2022-08-21T09:46:51;99299.69;;;32.68;42.83
10115;BME280;5097;43.260;27.812;2022-08-21T09:49:26;99316.31;;;32.33;44.09
10115;BME280;5097;43.260;27.812;2022-08-21T09:51:52;99301.63;;;32.68;43.01
10115;BME280;5097;43.260;27.812;2022-08-21T09:54:18;99301.00;;;32.95;42.56
10115;BME280;5097;43.260;27.812;2022-08-21T09:56:53;99288.66;;;32.63;42.47
10115;BME280;5097;43.260;27.812;2022-08-21T09:59:36;99305.22;;;32.85;42.34
10115;BME280;5097;43.260;27.812;2022-08-21T10:02:21;99291.16;;;33.33;40.99
10115;BME280;5097;43.260;27.812;2022-08-21T10:04:50;99295.63;;;33.56;39.59
10115;BME280;5097;43.260;27.812;2022-08-21T10:07:14;99214.75;;;33.09;39.33
10115;BME280;5097;43.260;27.812;2022-08-21T10:09:39;99301.56;;;33.53;39.49
10115;BME280;5097;43.260;27.812;2022-08-21T10:12:13;99287.84;;;33.48;39.56
10115;BME280;5097;43.260;27.812;2022-08-21T10:14:49;99273.94;;;33.32;38.71
10115;BME280;5097;43.260;27.812;2022-08-21T10:17:22;99289.91;;;33.23;39.24
10115;BME280;5097;43.260;27.812;2022-08-21T10:19:55;99291.38;;;32.92;39.56
10115;BME280;5097;43.260;27.812;2022-08-21T10:22:30;99286.34;;;32.55;39.73
10115;BME280;5097;43.260;27.812;2022-08-21T10:25:05;99257.09;;;32.09;39.75
10115;BME280;5097;43.260;27.812;2022-08-21T10:27:42;99278.72;;;31.58;40.74
10115;BME280;5097;43.260;27.812;2022-08-21T10:30:12;99254.78;;;31.89;42.10
10115;BME280;5097;43.260;27.812;2022-08-21T10:32:55;99287.97;;;32.22;42.40
10115;BME280;5097;43.260;27.812;2022-08-21T10:35:26;99293.16;;;32.69;41.54
10115;BME280;5097;43.260;27.812;2022-08-21T10:38:08;99280.94;;;32.14;43.56
10115;BME280;5097;43.260;27.812;2022-08-21T10:41:03;99275.09;;;32.68;43.00
10115;BME280;5097;43.260;27.812;2022-08-21T10:43:35;99267.78;;;32.40;44.48
10115;BME280;5097;43.260;27.812;2022-08-21T10:46:14;99270.97;;;33.00;43.05
10115;BME280;5097;43.260;27.812;2022-08-21T10:48:47;99295.25;;;32.33;44.04
10115;BME280;5097;43.260;27.812;2022-08-21T10:51:19;99261.78;;;31.68;45.49
10115;BME280;5097;43.260;27.812;2022-08-21T10:53:57;99285.19;;;32.51;43.66
10115;BME280;5097;43.260;27.812;2022-08-21T10:56:25;99249.09;;;32.49;42.82
10115;BME280;5097;43.260;27.812;2022-08-21T10:59:01;99278.72;;;32.40;45.01
10115;BME280;5097;43.260;27.812;2022-08-21T11:01:29;99246.97;;;32.39;44.80
10115;BME280;5097;43.260;27.812;2022-08-21T11:04:07;99279.56;;;32.40;46.14
10115;BME280;5097;43.260;27.812;2022-08-21T11:06:34;99268.69;;;31.88;48.30
10115;BME280;5097;43.260;27.812;2022-08-21T11:09:06;99273.72;;;32.20;46.96
10115;BME280;5097;43.260;27.812;2022-08-21T11:11:36;99248.41;;;32.24;46.56
10115;BME280;5097;43.260;27.812;2022-08-21T11:14:15;99264.97;;;32.52;45.46
10115;BME280;5097;43.260;27.812;2022-08-21T11:16:45;99257.38;;;32.71;45.87
10115;BME280;5097;43.260;27.812;2022-08-21T11:19:16;99273.94;;;32.47;46.52
10115;BME280;5097;43.260;27.812;2022-08-21T11:21:46;99273.53;;;32.72;46.18
10115;BME280;5097;43.260;27.812;2022-08-21T11:24:23;99266.91;;;33.02;46.82
10115;BME280;5097;43.260;27.812;2022-08-21T11:26:52;99268.78;;;32.51;48.74
10115;BME280;5097;43.260;27.812;2022-08-21T11:29:23;99266.56;;;32.48;48.46
10115;BME280;5097;43.260;27.812;2022-08-21T11:32:00;99272.22;;;32.75;47.79
10115;BME280;5097;43.260;27.812;2022-08-21T11:34:39;99276.00;;;32.11;49.21
10115;BME280;5097;43.260;27.812;2022-08-21T11:37:11;99173.25;;;31.64;48.73
10115;BME280;5097;43.260;27.812;2022-08-21T11:39:44;99268.47;;;32.64;48.18
10115;BME280;5097;43.260;27.812;2022-08-21T11:42:18;99257.34;;;32.37;48.96
10115;BME280;5097;43.260;27.812;2022-08-21T11:44:52;99259.06;;;32.26;48.71
10115;BME280;5097;43.260;27.812;2022-08-21T11:47:29;99261.28;;;32.58;48.67
10115;BME280;5097;43.260;27.812;2022-08-21T11:50:06;99253.38;;;32.45;47.87
10115;BME280;5097;43.260;27.812;2022-08-21T11:52:59;99239.00;;;31.51;50.10
10115;BME280;5097;43.260;27.812;2022-08-21T11:55:29;99250.94;;;32.02;49.34
10115;BME280;5097;43.260;27.812;2022-08-21T11:58:01;99245.78;;;32.64;47.92
10115;BME280;5097;43.260;27.812;2022-08-21T12:00:28;99241.97;;;32.99;46.58
10115;BME280;5097;43.260;27.812;2022-08-21T12:02:56;99233.69;;;32.77;47.12
10115;BME280;5097;43.260;27.812;2022-08-21T12:05:31;99223.44;;;31.63;49.68
10115;BME280;5097;43.260;27.812;2022-08-21T12:08:05;99243.44;;;31.28;51.03
10115;BME280;5097;43.260;27.812;2022-08-21T12:10:33;99221.56;;;32.38;47.56
10115;BME280;5097;43.260;27.812;2022-08-21T12:13:06;99224.47;;;32.32;48.07
10115;BME280;5097;43.260;27.812;2022-08-21T12:15:32;99220.19;;;31.78;49.94
10115;BME280;5097;43.260;27.812;2022-08-21T12:17:58;99211.97;;;32.36;48.75
10115;BME280;5097;43.260;27.812;2022-08-21T12:20:42;99202.84;;;32.30;48.53
10115;BME280;5097;43.260;27.812;2022-08-21T12:23:23;99214.13;;;32.51;48.34
10115;BME280;5097;43.260;27.812;2022-08-21T12:26:01;99202.53;;;32.44;47.58
10115;BME280;5097;43.260;27.812;2022-08-21T12:28:28;99181.00;;;32.30;47.93
10115;BME280;5097;43.260;27.812;2022-08-21T12:30:53;99191.06;;;32.13;47.78
10115;BME280;5097;43.260;27.812;2022-08-21T12:33:23;99212.47;;;31.75;48.68
10115;BME280;5097;43.260;27.812;2022-08-21T12:35:51;99218.34;;;32.24;48.20
10115;BME280;5097;43.260;27.812;2022-08-21T12:38:20;99232.22;;;31.94;47.97
10115;BME280;5097;43.260;27.812;2022-08-21T12:40:50;99203.59;;;31.56;48.92
10115;BME280;5097;43.260;27.812;2022-08-21T12:43:19;99211.28;;;32.00;47.78
10115;BME280;5097;43.260;27.812;2022-08-21T12:45:47;99226.91;;;31.87;48.02
10115;BME280;5097;43.260;27.812;2022-08-21T12:48:15;99220.41;;;32.34;46.98
10115;BME280;5097;43.260;27.812;2022-08-21T12:50:51;99215.50;;;32.36;46.54
10115;BME280;5097;43.260;27.812;2022-08-21T12:53:25;99214.69;;;32.36;46.33
10115;BME280;5097;43.260;27.812;2022-08-21T12:55:50;99202.53;;;32.15;47.12
10115;BME280;5097;43.260;27.812;2022-08-21T12:58:19;99202.66;;;32.20;47.55
10115;BME280;5097;43.260;27.812;2022-08-21T13:00:49;99198.91;;;32.09;46.66
10115;BME280;5097;43.260;27.812;2022-08-21T13:03:15;99199.31;;;30.72;49.87